Time;durP1;ratioP1;P1;durP2;ratioP2;P2;SDS_P1;SDS_P2;PMS_P1;PMS_P2;Temp;Humidity;BMP_temperature;BMP_pressure;BME280_temperature;BME280_humidity;BME280_pressure;Samples;Min_cycle;Max_cycle;Signal;HPM_P1;HPM_P2
2021/01/27 00:01:12;;;;;;;25.70;5.13;;;;;;;17.06;66.91;99919.84;5013274;28;20129;-65
2021/01/27 00:03:40;;;;;;;34.25;4.88;;;;;;;17.07;67.00;99926.91;5014640;28;20825;-65
2021/01/27 00:06:08;;;;;;;29.80;4.75;;;;;;;17.10;65.34;99970.41;5020024;28;20158;-65
2021/01/27 00:08:35;;;;;;;24.08;2.97;;;;;;;17.10;62.57;99949.06;5012236;28;20518;-65
2021/01/27 00:11:02;;;;;;;8.70;1.38;;;;;;;17.04;60.54;99959.00;5011711;28;20053;-65
2021/01/27 00:13:30;;;;;;;10.07;1.27;;;;;;;16.98;58.93;99948.50;5010159;28;20038;-65
2021/01/27 00:15:57;;;;;;;3.75;0.90;;;;;;;16.89;59.02;99932.69;5011617;28;20395;-65
2021/01/27 00:18:24;;;;;;;4.10;0.70;;;;;;;16.77;59.51;99938.31;5011615;28;20138;-64
2021/01/27 00:20:52;;;;;;;6.13;0.47;;;;;;;16.60;60.73;99931.59;5011305;28;20069;-65
2021/01/27 00:23:19;;;;;;;5.50;0.93;;;;;;;16.39;61.79;99918.69;5011541;28;20061;-64
2021/01/27 00:25:46;;;;;;;3.65;0.65;;;;;;;16.01;65.01;99915.97;5017168;28;20129;-64
2021/01/27 00:28:13;;;;;;;7.00;0.88;;;;;;;15.71;67.08;99928.06;5021069;28;20082;-64
2021/01/27 00:30:42;;;;;;;7.68;1.75;;;;;;;15.46;68.53;99956.88;5011546;28;20042;-64
2021/01/27 00:33:11;;;;;;;6.65;0.98;;;;;;;15.32;69.30;99942.94;5011902;28;20060;-65
2021/01/27 00:35:43;;;;;;;5.57;1.10;;;;;;;15.22;70.31;99951.97;5015511;28;20037;-65
2021/01/27 00:38:14;;;;;;;5.65;1.20;;;;;;;15.05;71.29;99945.13;5031196;28;20057;-65
2021/01/27 00:40:41;;;;;;;4.18;0.98;;;;;;;14.85;72.93;99952.53;4992573;28;20038;-66
2021/01/27 00:43:09;;;;;;;5.35;0.60;;;;;;;14.58;74.89;99932.56;5010532;28;20530;-65
2021/01/27 00:45:36;;;;;;;7.90;1.17;;;;;;;14.26;76.59;99925.00;5014546;28;20129;-65
2021/01/27 00:48:04;;;;;;;10.18;1.33;;;;;;;14.06;77.75;99937.63;5030894;28;20033;-65
2021/01/27 00:50:31;;;;;;;11.32;1.50;;;;;;;13.94;78.71;99888.25;5031228;28;20450;-65
2021/01/27 00:52:59;;;;;;;8.95;1.13;;;;;;;13.94;78.87;99874.09;5028026;28;20053;-65
2021/01/27 00:55:30;;;;;;;6.30;1.25;;;;;;;13.91;79.09;99888.28;5010487;28;20119;-65
2021/01/27 00:57:58;;;;;;;5.82;0.80;;;;;;;13.86;79.78;99875.97;5010575;28;20046;-65
2021/01/27 01:00:28;;;;;;;10.07;1.30;;;;;;;13.82;80.02;99864.53;5010771;28;20100;-65
2021/01/27 01:02:55;;;;;;;8.63;1.13;;;;;;;13.77;80.51;99866.38;5006106;28;20049;-65
2021/01/27 01:05:26;;;;;;;8.60;1.35;;;;;;;13.74;80.93;99863.72;5010645;28;20452;-64
2021/01/27 01:07:53;;;;;;;8.85;2.03;;;;;;;13.73;81.15;99869.03;5014717;28;20499;-65
2021/01/27 01:10:22;;;;;;;6.95;1.30;;;;;;;13.78;81.51;99861.94;5011232;28;20037;-64
2021/01/27 01:12:50;;;;;;;12.60;1.60;;;;;;;13.80;81.64;99844.22;5010574;28;20632;-65
2021/01/27 01:15:18;;;;;;;12.95;1.33;;;;;;;13.80;81.60;99838.91;5020400;28;20125;-65
2021/01/27 01:17:45;;;;;;;9.30;1.27;;;;;;;13.81;82.04;99838.00;5011189;28;20058;-65
2021/01/27 01:20:14;;;;;;;12.20;1.50;;;;;;;13.84;81.97;99833.56;5009809;28;20069;-65
2021/01/27 01:22:43;;;;;;;16.08;2.25;;;;;;;13.86;82.19;99836.16;5011962;28;20053;-65
2021/01/27 01:25:12;;;;;;;12.98;1.88;;;;;;;13.90;82.43;99838.78;5010596;28;20519;-64
2021/01/27 01:27:39;;;;;;;18.90;2.72;;;;;;;13.95;82.80;99841.38;5026333;28;20046;-65
2021/01/27 01:30:15;;;;;;;11.98;2.35;;;;;;;14.02;82.72;99824.47;5007020;28;20042;-64
2021/01/27 01:32:42;;;;;;;14.15;2.25;;;;;;;14.00;82.78;99836.88;5011063;28;20310;-64
2021/01/27 01:35:12;;;;;;;16.35;2.45;;;;;;;14.02;82.82;99843.03;5009913;28;20113;-64
2021/01/27 01:37:39;;;;;;;17.70;2.35;;;;;;;14.05;83.04;99855.38;4996086;28;20046;-64
2021/01/27 01:40:10;;;;;;;13.82;2.08;;;;;;;14.05;83.04;99866.00;5010000;28;20518;-64
2021/01/27 01:42:38;;;;;;;22.90;2.35;;;;;;;14.06;82.98;99873.94;5022604;28;20186;-64
2021/01/27 01:45:08;;;;;;;16.30;1.55;;;;;;;14.09;82.89;99873.03;5010835;28;20073;-65
2021/01/27 01:47:36;;;;;;;19.77;2.58;;;;;;;14.10;82.92;99870.38;5010650;28;20446;-64
2021/01/27 01:50:04;;;;;;;14.35;1.60;;;;;;;14.11;83.16;99866.78;5009853;28;20502;-64
2021/01/27 01:52:31;;;;;;;19.48;1.90;;;;;;;14.13;82.88;99878.28;5010486;28;20038;-64
2021/01/27 01:54:59;;;;;;;16.10;1.95;;;;;;;14.14;83.07;99885.34;5015432;28;20085;-65
2021/01/27 01:57:31;;;;;;;17.85;1.70;;;;;;;14.19;83.08;99898.53;5010078;28;20068;-64
2021/01/27 02:00:02;;;;;;;11.70;1.73;;;;;;;14.22;82.92;99898.53;5009572;28;20536;-64
2021/01/27 02:02:30;;;;;;;7.47;0.93;;;;;;;14.21;82.14;99900.28;5019634;28;20128;-64
2021/01/27 02:05:02;;;;;;;13.45;1.58;;;;;;;14.23;81.45;99906.47;5011953;28;20442;-64
2021/01/27 02:07:30;;;;;;;12.05;1.48;;;;;;;14.21;81.17;99905.59;5010190;28;20058;-64
2021/01/27 02:09:57;;;;;;;6.63;0.90;;;;;;;14.21;80.75;99900.28;5009824;28;20073;-64
2021/01/27 02:12:33;;;;;;;6.05;0.82;;;;;;;14.20;80.60;99903.84;5010392;28;20042;-64
2021/01/27 02:15:25;;;;;;;11.23;0.73;;;;;;;14.19;80.61;99894.13;5016502;28;20044;-64
2021/01/27 02:18:00;;;;;;;8.98;1.42;;;;;;;14.20;80.38;99895.88;5015151;28;20042;-65
2021/01/27 02:20:57;;;;;;;6.28;1.65;;;;;;;14.21;80.03;99899.41;5009766;28;20534;-63
2021/01/27 02:24:12;;;;;;;10.82;0.65;;;;;;;14.20;79.88;99911.81;5012177;28;20133;-66
2021/01/27 02:27:00;;;;;;;7.17;0.93;;;;;;;14.15;80.23;99929.56;5012256;28;20113;-64
2021/01/27 02:29:52;;;;;;;9.88;1.80;;;;;;;14.01;80.57;99958.03;5013064;28;20271;-64
2021/01/27 02:32:46;;;;;;;7.93;2.95;;;;;;;13.72;79.75;100003.44;5009408;28;20034;-63
2021/01/27 02:35:19;;;;;;;13.70;3.15;;;;;;;13.27;80.13;100003.81;5007022;28;20057;-65
2021/01/27 02:37:52;;;;;;;10.80;2.05;;;;;;;12.95;80.42;99973.13;5021826;28;20084;-64
2021/01/27 02:40:24;;;;;;;15.75;3.90;;;;;;;12.77;80.40;100007.66;5011614;28;20030;-64
2021/01/27 02:43:02;;;;;;;19.13;2.42;;;;;;;12.74;80.37;99986.50;5009695;28;20108;-65
2021/01/27 02:45:34;;;;;;;9.57;0.90;;;;;;;12.74;80.35;99970.59;5022597;28;20520;-64
2021/01/27 02:48:06;;;;;;;9.65;1.27;;;;;;;12.84;80.21;99992.63;5016318;28;20096;-65
2021/01/27 02:50:41;;;;;;;15.27;7.50;;;;;;;12.76;79.95;100005.91;5009850;28;20042;-64
2021/01/27 02:53:15;;;;;;;9.38;3.42;;;;;;;12.72;80.03;100007.72;5008379;28;20049;-64
2021/01/27 02:55:50;;;;;;;16.35;5.00;;;;;;;12.72;79.66;100010.34;5012146;28;20057;-63
2021/01/27 02:58:21;;;;;;;;;;;;;;;12.64;79.78;99961.84;5009495;28;20125;-63
2021/01/27 03:00:56;;;;;;;10.25;3.30;;;;;;;12.72;80.08;99935.31;5012022;28;20409;-63
2021/01/27 03:03:28;;;;;;;8.70;3.53;;;;;;;12.78;79.70;99914.97;4994704;28;20561;-63
2021/01/27 03:06:00;;;;;;;14.15;8.63;;;;;;;12.82;79.67;99923.75;5024806;28;20044;-64
2021/01/27 03:08:30;;;;;;;11.40;3.33;;;;;;;12.92;79.13;99951.09;5014021;28;20065;-63
2021/01/27 03:11:06;;;;;;;9.50;1.92;;;;;;;12.99;78.98;99966.03;5012916;28;20129;-64
2021/01/27 03:13:36;;;;;;;5.68;0.98;;;;;;;13.04;78.65;99964.22;5012953;28;20428;-63
2021/01/27 03:16:07;;;;;;;5.82;0.93;;;;;;;13.01;78.07;99975.72;5014370;28;20394;-63
2021/01/27 03:18:37;;;;;;;5.32;0.80;;;;;;;12.98;78.49;99994.31;5019836;28;20056;-63
2021/01/27 03:21:10;;;;;;;4.85;0.63;;;;;;;12.92;78.54;100001.41;5019834;28;20030;-63
2021/01/27 03:23:43;;;;;;;4.63;0.90;;;;;;;12.95;78.60;100014.63;5023355;28;20120;-63
2021/01/27 03:26:17;;;;;;;7.20;0.63;;;;;;;12.99;78.39;100011.09;5016574;28;20516;-64
2021/01/27 03:28:51;;;;;;;9.63;0.82;;;;;;;13.01;77.96;99998.69;5012344;28;20128;-63
2021/01/27 03:31:18;;;;;;;8.55;0.80;;;;;;;12.96;77.88;99993.44;5011798;28;20040;-64
2021/01/27 03:33:51;;;;;;;6.10;0.82;;;;;;;12.94;78.05;100004.91;5013914;28;20494;-63
2021/01/27 03:36:20;;;;;;;4.38;0.35;;;;;;;12.91;77.94;100013.78;5012224;28;20512;-64
2021/01/27 03:38:50;;;;;;;5.57;0.52;;;;;;;12.85;78.21;100000.56;5011460;28;20077;-64
2021/01/27 03:41:21;;;;;;;2.95;0.40;;;;;;;12.87;78.37;99998.78;5011350;28;20121;-64
2021/01/27 03:43:56;;;;;;;5.82;0.63;;;;;;;12.87;78.21;100006.72;5012652;28;20042;-63
2021/01/27 03:46:29;;;;;;;7.80;1.00;;;;;;;12.83;78.53;100004.09;5026216;28;20044;-66
2021/01/27 03:48:59;;;;;;;2.60;0.35;;;;;;;12.82;78.52;99995.28;5013496;28;20499;-64
2021/01/27 03:51:30;;;;;;;7.47;2.40;;;;;;;12.71;78.63;100003.28;5012769;28;20058;-63
2021/01/27 03:54:04;;;;;;;4.07;1.40;;;;;;;12.55;79.03;100004.25;5012580;28;20477;-64
2021/01/27 03:56:38;;;;;;;1.88;0.50;;;;;;;12.46;79.39;100004.31;5012388;28;20133;-63
2021/01/27 03:59:09;;;;;;;2.53;0.85;;;;;;;12.51;79.25;100007.81;5011627;28;20526;-64
2021/01/27 04:01:45;;;;;;;1.48;0.75;;;;;;;12.62;78.61;99997.16;5012572;28;20754;-64
2021/01/27 04:04:12;;;;;;;4.45;0.40;;;;;;;12.67;78.46;99995.34;5011821;28;20438;-64
2021/01/27 04:06:41;;;;;;;4.07;0.40;;;;;;;12.65;78.23;99992.75;5011683;28;20133;-64
2021/01/27 04:09:08;;;;;;;2.38;0.40;;;;;;;12.62;78.37;99983.91;5011634;28;20084;-64
2021/01/27 04:11:36;;;;;;;4.07;0.30;;;;;;;12.64;78.22;99987.44;5012365;28;20038;-64
2021/01/27 04:14:03;;;;;;;1.90;0.30;;;;;;;12.64;78.01;100009.50;5019893;28;20120;-63
2021/01/27 04:16:31;;;;;;;3.35;0.50;;;;;;;12.59;78.11;100013.06;5029889;28;20125;-64
2021/01/27 04:18:59;;;;;;;1.67;0.50;;;;;;;12.51;78.06;100021.03;5011345;28;22343;-64
2021/01/27 04:21:27;;;;;;;2.67;0.40;;;;;;;12.49;78.32;100024.56;5011797;28;20134;-64
2021/01/27 04:23:55;;;;;;;5.20;0.50;;;;;;;12.56;78.09;100032.47;5017059;28;20117;-64
2021/01/27 04:26:23;;;;;;;1.08;0.20;;;;;;;12.57;77.93;100039.53;5011713;28;20056;-64
2021/01/27 04:28:51;;;;;;;3.67;0.40;;;;;;;12.58;77.82;100041.31;5011048;28;20062;-65
2021/01/27 04:31:18;;;;;;;1.20;0.40;;;;;;;12.57;77.84;100039.53;5011877;28;20117;-63
2021/01/27 04:33:46;;;;;;;2.40;0.30;;;;;;;12.57;77.64;100036.00;5011724;28;20030;-64
2021/01/27 04:36:13;;;;;;;1.65;0.10;;;;;;;12.51;77.50;100050.16;5011020;28;20454;-64
2021/01/27 04:38:41;;;;;;;1.63;0.30;;;;;;;12.44;77.75;100059.00;5011647;28;20042;-64
2021/01/27 04:41:10;;;;;;;5.60;2.70;;;;;;;12.42;77.86;100073.13;5009751;28;20125;-64
2021/01/27 04:43:40;;;;;;;11.68;4.85;;;;;;;12.37;78.32;100087.25;5012947;28;20049;-64
2021/01/27 04:46:15;;;;;;;8.80;5.50;;;;;;;12.41;78.48;100093.41;5018909;28;20030;-64
2021/01/27 04:48:51;;;;;;;6.35;3.88;;;;;;;12.43;78.23;100102.25;4991881;28;20138;-64
2021/01/27 04:51:22;;;;;;;15.35;12.40;;;;;;;12.52;78.04;100096.03;5007077;28;20503;-64
2021/01/27 04:54:19;;;;;;;5.63;4.28;;;;;;;12.58;77.84;100096.03;5015660;28;20093;-65
2021/01/27 04:57:19;;;;;;;8.07;3.72;;;;;;;12.48;78.00;100107.50;5011262;28;20151;-64
2021/01/27 05:00:02;;;;;;;10.40;5.38;;;;;;;12.40;78.67;100118.16;4991112;28;20056;-64
2021/01/27 05:02:51;;;;;;;15.57;13.98;;;;;;;12.40;78.87;100118.16;5003415;28;20129;-63
2021/01/27 05:05:25;;;;;;;13.00;11.05;;;;;;;12.36;79.14;100126.97;4992944;28;20038;-64
2021/01/27 05:08:01;;;;;;;15.43;8.35;;;;;;;12.29;78.66;100133.16;4991174;28;20125;-64
2021/01/27 05:10:38;;;;;;;9.15;5.20;;;;;;;12.31;78.54;100126.97;4991301;28;20108;-64
2021/01/27 05:13:13;;;;;;;11.25;5.38;;;;;;;12.25;78.53;100134.94;4991532;28;20043;-64
2021/01/27 05:15:40;;;;;;;10.25;3.10;;;;;;;12.20;78.13;100142.00;5008204;28;20052;-64
2021/01/27 05:18:07;;;;;;;6.50;2.00;;;;;;;12.20;77.48;100159.63;5001603;28;20069;-64
2021/01/27 05:20:34;;;;;;;13.85;4.13;;;;;;;12.16;77.20;100166.69;5010672;28;20118;-64
2021/01/27 05:23:01;;;;;;;10.68;3.00;;;;;;;12.11;75.19;100167.56;5016200;28;20034;-64
2021/01/27 05:25:41;;;;;;;16.50;4.28;;;;;;;12.00;73.70;100162.28;5012822;28;20140;-64
2021/01/27 05:28:13;;;;;;;11.73;2.72;;;;;;;11.98;73.34;100172.88;5009986;28;20072;-64
2021/01/27 05:30:47;;;;;;;14.90;4.22;;;;;;;11.91;73.57;100175.50;5010819;28;20068;-64
2021/01/27 05:33:15;;;;;;;12.80;3.70;;;;;;;11.88;72.10;100175.50;5008930;28;20049;-64
2021/01/27 05:35:42;;;;;;;13.07;3.03;;;;;;;11.89;72.19;100180.78;5013085;28;20046;-64
2021/01/27 05:38:24;;;;;;;11.65;2.83;;;;;;;11.90;71.43;100202.81;5010204;28;20120;-64
2021/01/27 05:40:52;;;;;;;11.65;3.72;;;;;;;11.91;71.75;100202.84;5009626;28;20448;-65
2021/01/27 05:43:26;;;;;;;12.57;2.75;;;;;;;11.96;71.84;100210.75;5012806;28;20064;-64
2021/01/27 05:45:53;;;;;;;11.27;4.83;;;;;;;11.97;71.69;100207.25;5010612;28;20125;-65
2021/01/27 05:48:27;;;;;;;15.32;6.32;;;;;;;11.99;71.69;100224.00;5010582;28;20267;-64
2021/01/27 05:50:55;;;;;;;;;;;;;;;11.95;71.63;100231.03;5010263;28;20038;-65
2021/01/27 05:53:24;;;;;;;14.07;3.17;;;;;;;12.01;72.50;100224.00;5017305;28;20008;-64
2021/01/27 05:56:15;;;;;;;8.50;2.58;;;;;;;12.15;72.26;100233.69;5014809;28;20557;-65
2021/01/27 05:58:47;;;;;;;11.35;3.55;;;;;;;12.25;72.37;100239.91;5005841;28;20050;-64
2021/01/27 06:01:21;;;;;;;17.48;4.65;;;;;;;12.27;72.71;100241.63;5015513;28;20402;-65
2021/01/27 06:03:56;;;;;;;11.00;3.97;;;;;;;12.24;72.75;100235.47;5019337;28;20042;-65
2021/01/27 06:06:23;;;;;;;12.75;3.28;;;;;;;12.25;72.56;100246.06;5011239;28;20038;-64
2021/01/27 06:08:53;;;;;;;17.75;4.00;;;;;;;12.25;72.85;100259.31;5009563;28;20034;-66
2021/01/27 06:11:21;;;;;;;15.23;4.15;;;;;;;12.30;73.41;100249.59;5007806;28;20121;-65
2021/01/27 06:13:51;;;;;;;20.58;6.72;;;;;;;12.22;72.70;100269.88;5010283;28;20116;-64
2021/01/27 06:16:24;;;;;;;15.73;3.53;;;;;;;12.17;72.41;100276.03;5010027;28;20041;-64
2021/01/27 06:18:51;;;;;;;11.43;3.63;;;;;;;12.17;72.48;100270.75;4997411;28;20060;-65
2021/01/27 06:21:50;;;;;;;16.90;4.63;;;;;;;12.21;71.23;100272.50;5009417;28;20121;-64
2021/01/27 06:24:30;;;;;;;13.68;2.92;;;;;;;12.25;70.60;100269.88;5009800;28;20056;-65
2021/01/27 06:27:44;;;;;;;8.65;2.85;;;;;;;12.31;69.07;100280.47;5009260;28;20034;-64
2021/01/27 06:30:41;;;;;;;13.57;6.35;;;;;;;12.38;66.88;100286.66;4999436;28;20125;-64
2021/01/27 06:33:38;;;;;;;11.85;2.80;;;;;;;12.44;67.28;100299.88;5003254;28;20037;-64
2021/01/27 06:36:33;;;;;;;11.38;2.90;;;;;;;12.56;67.00;100297.25;5008903;28;20076;-64
2021/01/27 06:39:15;;;;;;;14.20;3.00;;;;;;;12.59;66.68;100299.91;4994105;28;20125;-64
2021/01/27 06:42:01;;;;;;;13.45;3.55;;;;;;;12.63;66.64;100306.06;5009758;28;20129;-64
2021/01/27 06:44:49;;;;;;;14.07;4.97;;;;;;;12.80;67.39;100317.53;4997765;28;20128;-64
2021/01/27 06:47:51;;;;;;;9.05;2.92;;;;;;;12.92;68.03;100321.94;5007908;28;20042;-65
2021/01/27 06:50:44;;;;;;;22.92;6.45;;;;;;;12.89;68.21;100328.13;4973044;28;20402;-64
2021/01/27 06:53:41;;;;;;;8.98;3.17;;;;;;;12.83;68.52;100329.88;4968938;28;20137;-64
2021/01/27 06:56:27;;;;;;;12.32;3.00;;;;;;;12.71;67.51;100336.09;4985790;28;20035;-65
2021/01/27 06:59:30;;;;;;;13.93;3.10;;;;;;;12.68;66.30;100322.81;4987204;28;20046;-65
2021/01/27 07:02:25;;;;;;;12.82;2.15;;;;;;;12.69;65.09;100337.84;4992928;28;20670;-65
2021/01/27 07:05:05;;;;;;;;;;;;;;;12.66;62.21;100341.38;4992233;28;20133;-65
2021/01/27 07:08:19;;;;;;;9.80;2.70;;;;;;;12.66;62.62;100346.69;4993066;28;19929;-65
2021/01/27 07:11:07;;;;;;;8.65;2.28;;;;;;;12.67;62.08;100351.06;4945867;28;20082;-65
2021/01/27 07:13:53;;;;;;;12.73;3.03;;;;;;;12.68;61.69;100350.19;5010768;28;20077;-65
2021/01/27 07:16:33;;;;;;;14.07;3.50;;;;;;;12.71;61.16;100352.84;5012553;28;20062;-65
2021/01/27 07:19:27;;;;;;;16.23;3.30;;;;;;;12.72;61.01;100356.41;5012046;28;20038;-65
2021/01/27 07:21:59;;;;;;;13.32;3.25;;;;;;;12.73;60.99;100360.81;4993627;28;20058;-65
2021/01/27 07:24:33;;;;;;;13.45;2.88;;;;;;;12.75;60.45;100366.97;4994455;28;20046;-65
2021/01/27 07:27:06;;;;;;;11.65;3.42;;;;;;;12.86;60.51;100370.53;5012120;28;20121;-65
2021/01/27 07:29:42;;;;;;;11.95;4.05;;;;;;;13.16;61.39;100353.75;5012199;28;20125;-65
2021/01/27 07:32:21;;;;;;;11.20;3.67;;;;;;;13.55;60.45;100379.28;5012081;28;20125;-65
2021/01/27 07:34:54;;;;;;;12.63;3.22;;;;;;;13.88;60.44;100371.22;5012768;28;20046;-65
2021/01/27 07:37:26;;;;;;;10.52;2.60;;;;;;;14.22;58.21;100371.03;5005620;28;20058;-65
2021/01/27 07:40:01;;;;;;;12.85;2.22;;;;;;;14.49;57.41;100376.22;5006469;28;20132;-65
2021/01/27 07:42:36;;;;;;;12.50;2.75;;;;;;;14.67;57.30;100386.72;5004943;28;20475;-65
2021/01/27 07:45:08;;;;;;;8.35;2.85;;;;;;;14.59;56.69;100396.50;5006023;28;20046;-65
2021/01/27 07:47:49;;;;;;;10.50;2.58;;;;;;;14.94;56.14;100396.25;5005088;28;20563;-64
2021/01/27 07:50:18;;;;;;;11.48;2.28;;;;;;;15.23;54.14;100409.28;5001559;28;20542;-65
2021/01/27 07:53:03;;;;;;;9.77;2.22;;;;;;;15.01;52.76;100405.06;5001803;28;20069;-64
2021/01/27 07:55:39;;;;;;;12.10;2.92;;;;;;;14.67;52.22;100417.72;5001388;28;20056;-65
2021/01/27 07:58:13;;;;;;;9.85;2.42;;;;;;;14.27;52.58;100403.75;5003452;28;20117;-64
2021/01/27 08:00:50;;;;;;;11.05;1.98;;;;;;;13.97;53.37;100418.06;5010324;28;20049;-65
2021/01/27 08:03:36;;;;;;;10.15;2.30;;;;;;;13.90;52.98;100426.94;5010040;28;20054;-64
2021/01/27 08:06:07;;;;;;;11.70;2.40;;;;;;;13.89;52.88;100414.53;4995120;28;20049;-64
2021/01/27 08:08:49;;;;;;;9.27;1.88;;;;;;;14.07;52.78;100403.84;5003307;28;20045;-64
2021/01/27 08:11:21;;;;;;;10.13;2.30;;;;;;;14.42;53.05;100400.16;4973464;28;20118;-64
2021/01/27 08:13:49;;;;;;;6.57;1.55;;;;;;;14.59;52.29;100416.88;4977115;28;20046;-66
2021/01/27 08:16:38;;;;;;;10.77;2.35;;;;;;;14.87;50.69;100413.16;4971786;28;20047;-64
2021/01/27 08:19:31;;;;;;;9.32;1.85;;;;;;;15.01;50.18;100424.56;4981196;28;20039;-64
2021/01/27 08:22:04;;;;;;;7.80;1.73;;;;;;;14.96;49.77;100422.84;4972630;28;20038;-65
2021/01/27 08:24:57;;;;;;;10.73;1.75;;;;;;;15.19;48.70;100423.50;4989806;28;20125;-64
2021/01/27 08:27:38;;;;;;;12.50;2.90;;;;;;;15.54;50.30;100445.38;4985784;28;20050;-64
2021/01/27 08:30:29;;;;;;;7.20;2.22;;;;;;;15.94;48.28;100448.50;4980756;28;20093;-65
2021/01/27 08:33:43;;;;;;;7.05;2.13;;;;;;;15.61;47.35;100454.19;4981715;28;20038;-65
2021/01/27 08:36:14;;;;;;;10.23;2.42;;;;;;;15.45;47.72;100442.78;4986858;28;20030;-65
2021/01/27 08:38:44;;;;;;;12.00;2.50;;;;;;;15.75;47.51;100449.59;4992651;28;20038;-64
2021/01/27 08:41:27;;;;;;;7.80;1.77;;;;;;;15.65;47.24;100439.94;4999856;28;20033;-64
2021/01/27 08:43:56;;;;;;;9.52;3.15;;;;;;;15.32;47.15;100446.44;4997857;28;20125;-65
2021/01/27 08:46:34;;;;;;;10.68;2.78;;;;;;;15.20;47.03;100430.59;4996603;28;20030;-65
2021/01/27 08:49:01;;;;;;;12.70;2.78;;;;;;;15.34;46.88;100427.81;5003700;28;21844;-65
2021/01/27 08:51:46;;;;;;;11.88;2.60;;;;;;;15.57;46.82;100462.19;5011413;28;20041;-64
2021/01/27 08:54:27;;;;;;;16.52;2.75;;;;;;;15.67;46.98;100467.44;5018692;28;20113;-64
2021/01/27 08:57:21;;;;;;;9.98;2.15;;;;;;;15.54;47.90;100479.09;4991403;28;20049;-64
2021/01/27 09:00:04;;;;;;;13.60;2.40;;;;;;;15.28;48.31;100489.03;5001119;28;20133;-64
2021/01/27 09:02:49;;;;;;;15.00;4.25;;;;;;;14.98;48.82;100466.22;5009715;28;20120;-64
2021/01/27 09:05:36;;;;;;;7.32;1.60;;;;;;;15.16;48.84;100469.59;5007655;28;20506;-65
2021/01/27 09:08:12;;;;;;;10.93;2.25;;;;;;;15.49;48.76;100463.13;5005450;28;20184;-65
2021/01/27 09:10:41;;;;;;;8.27;2.40;;;;;;;15.74;48.48;100477.13;5009718;28;20092;-65
2021/01/27 09:13:23;;;;;;;10.07;1.70;;;;;;;16.02;47.94;100479.47;5014435;28;20121;-65
2021/01/27 09:15:54;;;;;;;17.02;3.75;;;;;;;16.25;44.22;100470.31;4999069;28;20058;-65
2021/01/27 09:18:22;;;;;;;9.23;2.20;;;;;;;16.29;42.72;100479.16;4997075;28;20041;-65
2021/01/27 09:20:49;;;;;;;9.77;2.75;;;;;;;16.38;42.50;100470.16;4993877;28;20074;-65
2021/01/27 09:23:19;;;;;;;7.75;1.60;;;;;;;16.43;40.12;100473.66;4999085;28;20097;-64
2021/01/27 09:25:48;;;;;;;5.25;1.60;;;;;;;16.48;40.92;100464.69;4991269;28;20137;-64
2021/01/27 09:28:21;;;;;;;9.32;3.13;;;;;;;16.69;40.08;100472.44;5000276;28;20124;-64
2021/01/27 09:30:48;;;;;;;8.27;2.80;;;;;;;16.84;40.63;100474.00;4990232;28;20477;-65
2021/01/27 09:33:17;;;;;;;12.00;3.28;;;;;;;17.04;40.50;100463.03;4990856;28;20133;-65
2021/01/27 09:35:47;;;;;;;10.15;3.20;;;;;;;17.10;40.04;100485.16;4992074;28;20554;-64
2021/01/27 09:38:18;;;;;;;8.70;1.75;;;;;;;17.27;39.68;100476.88;5000368;28;20037;-64
2021/01/27 09:40:48;;;;;;;13.73;3.15;;;;;;;17.47;40.12;100484.53;5003594;28;20042;-64
2021/01/27 09:43:17;;;;;;;10.57;4.32;;;;;;;17.72;40.58;100471.69;5000467;28;20539;-66
2021/01/27 09:45:46;;;;;;;7.03;2.05;;;;;;;17.54;40.56;100471.06;4996512;28;20049;-64
2021/01/27 09:48:16;;;;;;;7.00;1.83;;;;;;;16.68;41.96;100494.66;4997339;28;20499;-64
2021/01/27 09:50:51;;;;;;;10.68;3.45;;;;;;;16.38;41.54;100491.47;5002603;28;20046;-65
2021/01/27 09:53:25;;;;;;;6.35;2.17;;;;;;;16.28;41.87;100485.38;5008375;28;20065;-65
2021/01/27 09:55:53;;;;;;;6.28;2.30;;;;;;;16.05;41.36;100477.66;5009140;28;20100;-65
2021/01/27 09:58:21;;;;;;;4.85;2.20;;;;;;;16.09;40.78;100481.16;5009880;28;20141;-64
2021/01/27 10:00:50;;;;;;;2.55;0.93;;;;;;;15.97;40.24;100483.97;5002373;28;20062;-64
2021/01/27 10:03:24;;;;;;;9.70;2.25;;;;;;;16.06;38.86;100474.13;4992645;28;20117;-64
2021/01/27 10:05:53;;;;;;;6.15;1.90;;;;;;;16.21;38.36;100473.91;4999657;28;20161;-64
2021/01/27 10:08:24;;;;;;;5.70;2.13;;;;;;;16.53;38.66;100475.31;4990605;28;20503;-65
2021/01/27 10:11:03;;;;;;;5.57;1.15;;;;;;;16.59;38.59;100465.44;4990452;28;20513;-64
2021/01/27 10:13:39;;;;;;;6.63;1.75;;;;;;;16.71;39.03;100473.31;5010294;28;20052;-64
2021/01/27 10:16:10;;;;;;;5.80;1.73;;;;;;;16.91;39.80;100465.00;4993799;28;20058;-64
2021/01/27 10:18:38;;;;;;;7.68;2.53;;;;;;;17.20;40.00;100448.53;5008532;28;20072;-64
2021/01/27 10:21:08;;;;;;;4.38;1.30;;;;;;;17.31;39.02;100454.59;5010144;28;20538;-65
2021/01/27 10:23:38;;;;;;;7.05;1.00;;;;;;;17.35;38.77;100447.41;5011796;28;20730;-65
2021/01/27 10:26:25;;;;;;;4.13;1.00;;;;;;;17.28;37.59;100462.63;5014126;28;20552;-65
2021/01/27 10:29:19;;;;;;;5.13;1.83;;;;;;;17.13;38.30;100446.91;4997851;28;20062;-65
2021/01/27 10:31:48;;;;;;;7.30;1.70;;;;;;;17.19;38.58;100433.47;4994335;28;20142;-65
2021/01/27 10:34:35;;;;;;;6.82;1.98;;;;;;;17.28;38.57;100446.63;5011091;28;20621;-64
2021/01/27 10:37:04;;;;;;;4.68;1.65;;;;;;;17.22;38.78;100436.06;5010292;28;20081;-65
2021/01/27 10:39:31;;;;;;;8.43;1.30;;;;;;;17.18;39.23;100437.03;4994306;28;20046;-64
2021/01/27 10:42:21;;;;;;;6.32;1.20;;;;;;;17.30;39.92;100444.81;5004708;28;20064;-64
2021/01/27 10:45:21;;;;;;;5.63;1.15;;;;;;;17.45;39.57;100436.56;5010579;28;20499;-64
2021/01/27 10:47:58;;;;;;;4.88;1.17;;;;;;;17.68;39.70;100446.84;4999754;28;20387;-64
2021/01/27 10:50:26;;;;;;;6.43;1.55;;;;;;;17.97;39.68;100453.41;4995642;28;20056;-64
2021/01/27 10:52:55;;;;;;;6.43;1.60;;;;;;;18.22;38.47;100463.59;5007907;28;20065;-64
2021/01/27 10:55:32;;;;;;;5.43;1.35;;;;;;;18.45;38.68;100467.53;5013094;28;20042;-64
2021/01/27 10:58:07;;;;;;;9.63;3.65;;;;;;;18.59;38.07;100462.81;5016386;28;20053;-64
2021/01/27 11:00:35;;;;;;;11.38;4.35;;;;;;;18.31;37.26;100465.19;5009077;28;20057;-64
2021/01/27 11:03:02;;;;;;;5.03;1.48;;;;;;;18.11;37.36;100473.63;5013217;28;20487;-65
2021/01/27 11:05:30;;;;;;;5.82;1.60;;;;;;;17.78;36.95;100475.16;5025341;28;20505;-64
2021/01/27 11:07:59;;;;;;;4.18;1.10;;;;;;;17.81;37.17;100472.41;5009683;28;20126;-64
2021/01/27 11:10:27;;;;;;;3.42;1.33;;;;;;;17.98;37.31;100487.25;5013217;28;20061;-64
2021/01/27 11:12:54;;;;;;;3.17;1.10;;;;;;;18.18;36.89;100490.41;5012868;28;20201;-64
2021/01/27 11:15:22;;;;;;;8.55;1.90;;;;;;;18.50;36.87;100487.06;5012673;28;20125;-64
2021/01/27 11:17:49;;;;;;;6.85;2.90;;;;;;;18.53;36.43;100470.94;5005110;28;20498;-64
2021/01/27 11:20:19;;;;;;;4.68;1.50;;;;;;;18.19;35.41;100471.66;5012133;28;20066;-64
2021/01/27 11:22:46;;;;;;;7.55;2.63;;;;;;;17.78;35.62;100472.47;5010431;28;20054;-64
2021/01/27 11:25:17;;;;;;;5.88;2.20;;;;;;;17.87;35.69;100479.41;5012125;28;20062;-64
2021/01/27 11:27:44;;;;;;;6.35;2.85;;;;;;;18.04;34.97;100485.34;5012177;28;20053;-64
2021/01/27 11:30:13;;;;;;;7.25;1.77;;;;;;;18.24;34.90;100488.50;5009835;28;20734;-64
2021/01/27 11:32:41;;;;;;;6.22;1.63;;;;;;;18.23;33.26;100492.06;5000040;28;20060;-64
2021/01/27 11:35:10;;;;;;;3.97;1.60;;;;;;;18.06;33.55;100494.16;5010535;28;20038;-64
2021/01/27 11:37:37;;;;;;;7.65;1.40;;;;;;;17.73;34.49;100506.38;5011803;28;20049;-64
2021/01/27 11:40:08;;;;;;;6.60;2.53;;;;;;;17.72;35.00;100511.75;4981036;28;20095;-64
2021/01/27 11:42:37;;;;;;;4.47;1.90;;;;;;;17.68;35.60;100507.34;5009721;28;20046;-64
2021/01/27 11:45:06;;;;;;;10.70;2.58;;;;;;;17.65;35.13;100521.66;5002969;28;20034;-64
2021/01/27 11:47:35;;;;;;;9.30;2.22;;;;;;;17.62;34.74;100496.78;4999341;28;20562;-64
2021/01/27 11:50:04;;;;;;;8.38;2.30;;;;;;;17.59;35.27;100494.16;4999336;28;20030;-63
2021/01/27 11:52:33;;;;;;;11.13;3.58;;;;;;;17.52;35.20;100498.72;5028570;28;20503;-64
2021/01/27 11:55:02;;;;;;;6.22;2.05;;;;;;;17.42;34.85;100508.66;4999309;28;20046;-64
2021/01/27 11:57:30;;;;;;;7.50;2.45;;;;;;;17.05;34.20;100502.13;4999901;28;20057;-64